sensor_id;sensor_type;location;lat;lon;timestamp;pressure;altitude;pressure_sealevel;temperature;humidity
53440;BME280;39333;47.044;15.080;2022-12-26T00:00:36;96418.50;;;0.68;78.50
53440;BME280;39333;47.044;15.080;2022-12-26T00:03:03;96413.41;;;0.75;78.88
53440;BME280;39333;47.044;15.080;2022-12-26T00:05:35;96408.53;;;0.72;79.13
53440;BME280;39333;47.044;15.080;2022-12-26T00:08:02;96423.63;;;0.62;79.88
53440;BME280;39333;47.044;15.080;2022-12-26T00:10:29;96415.28;;;0.44;80.67
53440;BME280;39333;47.044;15.080;2022-12-26T00:12:56;96401.69;;;0.71;80.52
53440;BME280;39333;47.044;15.080;2022-12-26T00:15:43;96408.09;;;0.83;78.95
53440;BME280;39333;47.044;15.080;2022-12-26T00:18:10;96391.03;;;0.81;78.67
53440;BME280;39333;47.044;15.080;2022-12-26T00:20:37;96403.81;;;0.90;78.54
53440;BME280;39333;47.044;15.080;2022-12-26T00:23:03;96405.16;;;0.86;78.09
53440;BME280;39333;47.044;15.080;2022-12-26T00:25:32;96396.84;;;0.83;78.52
53440;BME280;39333;47.044;15.080;2022-12-26T00:28:00;96399.66;;;0.81;78.78
53440;BME280;39333;47.044;15.080;2022-12-26T00:30:27;96398.22;;;0.79;79.00
53440;BME280;39333;47.044;15.080;2022-12-26T00:32:54;96404.59;;;0.76;79.35
53440;BME280;39333;47.044;15.080;2022-12-26T00:35:21;96407.22;;;0.76;79.70
53440;BME280;39333;47.044;15.080;2022-12-26T00:37:48;96412.22;;;0.63;79.50
53440;BME280;39333;47.044;15.080;2022-12-26T00:40:17;96417.75;;;0.37;80.99
53440;BME280;39333;47.044;15.080;2022-12-26T00:42:44;96420.59;;;0.50;81.07
53440;BME280;39333;47.044;15.080;2022-12-26T00:45:11;96415.72;;;0.70;80.41
53440;BME280;39333;47.044;15.080;2022-12-26T00:47:37;96418.72;;;0.82;79.82
53440;BME280;39333;47.044;15.080;2022-12-26T00:50:05;96433.00;;;0.71;79.19
53440;BME280;39333;47.044;15.080;2022-12-26T00:52:41;96415.94;;;0.46;80.25
53440;BME280;39333;47.044;15.080;2022-12-26T00:55:08;96426.91;;;0.33;81.45
53440;BME280;39333;47.044;15.080;2022-12-26T00:57:35;96425.00;;;0.50;82.08
53440;BME280;39333;47.044;15.080;2022-12-26T01:00:03;96415.75;;;0.47;81.79
53440;BME280;39333;47.044;15.080;2022-12-26T01:02:30;96430.22;;;0.73;81.03
53440;BME280;39333;47.044;15.080;2022-12-26T01:05:07;96417.66;;;0.76;80.86
53440;BME280;39333;47.044;15.080;2022-12-26T01:07:35;96417.56;;;0.84;79.63
53440;BME280;39333;47.044;15.080;2022-12-26T01:10:22;96428.38;;;0.81;80.21
53440;BME280;39333;47.044;15.080;2022-12-26T01:12:49;96416.38;;;0.72;81.32
53440;BME280;39333;47.044;15.080;2022-12-26T01:15:16;96413.16;;;0.85;80.55
53440;BME280;39333;47.044;15.080;2022-12-26T01:17:45;96429.84;;;0.98;79.87
53440;BME280;39333;47.044;15.080;2022-12-26T01:20:11;96434.16;;;0.91;79.81
53440;BME280;39333;47.044;15.080;2022-12-26T01:22:38;96423.38;;;0.94;79.72
53440;BME280;39333;47.044;15.080;2022-12-26T01:25:06;96425.06;;;1.02;78.95
53440;BME280;39333;47.044;15.080;2022-12-26T01:27:32;96423.91;;;1.04;78.54
53440;BME280;39333;47.044;15.080;2022-12-26T01:30:03;96437.97;;;1.03;78.28
53440;BME280;39333;47.044;15.080;2022-12-26T01:32:30;96424.69;;;0.90;78.37
53440;BME280;39333;47.044;15.080;2022-12-26T01:34:56;96434.50;;;0.88;78.34
53440;BME280;39333;47.044;15.080;2022-12-26T01:37:23;96432.06;;;0.87;78.10
53440;BME280;39333;47.044;15.080;2022-12-26T01:39:50;96420.59;;;0.73;79.40
53440;BME280;39333;47.044;15.080;2022-12-26T01:42:20;96417.78;;;0.60;79.64
53440;BME280;39333;47.044;15.080;2022-12-26T01:47:42;96410.66;;;0.31;83.74
53440;BME280;39333;47.044;15.080;2022-12-26T01:51:19;96411.88;;;0.43;83.47
53440;BME280;39333;47.044;15.080;2022-12-26T01:53:28;96411.41;;;0.40;83.16
53440;BME280;39333;47.044;15.080;2022-12-26T01:56:25;96407.06;;;0.32;84.83
53440;BME280;39333;47.044;15.080;2022-12-26T01:59:05;96418.91;;;0.34;84.57
53440;BME280;39333;47.044;15.080;2022-12-26T02:01:35;96417.25;;;0.42;85.92
53440;BME280;39333;47.044;15.080;2022-12-26T02:04:06;96418.97;;;0.49;85.89
53440;BME280;39333;47.044;15.080;2022-12-26T02:06:53;96418.59;;;0.60;85.21
53440;BME280;39333;47.044;15.080;2022-12-26T02:09:20;96424.53;;;0.69;84.18
53440;BME280;39333;47.044;15.080;2022-12-26T02:11:51;96416.53;;;0.93;87.46
53440;BME280;39333;47.044;15.080;2022-12-26T02:14:41;96410.22;;;1.02;87.07
53440;BME280;39333;47.044;15.080;2022-12-26T02:17:08;96426.81;;;1.10;87.13
53440;BME280;39333;47.044;15.080;2022-12-26T02:25:26;96427.56;;;1.33;88.22
53440;BME280;39333;47.044;15.080;2022-12-26T02:28:14;96433.00;;;1.46;88.83
53440;BME280;39333;47.044;15.080;2022-12-26T02:30:57;96442.00;;;1.44;88.26
53440;BME280;39333;47.044;15.080;2022-12-26T02:33:41;96427.19;;;1.36;86.89
53440;BME280;39333;47.044;15.080;2022-12-26T02:42:34;96422.47;;;1.17;83.70
53440;BME280;39333;47.044;15.080;2022-12-26T02:45:32;96423.47;;;1.16;83.48
53440;BME280;39333;47.044;15.080;2022-12-26T02:57:23;96437.25;;;1.10;82.48
53440;BME280;39333;47.044;15.080;2022-12-26T03:00:17;96441.94;;;1.14;81.33
53440;BME280;39333;47.044;15.080;2022-12-26T03:06:00;96446.78;;;1.02;81.47
53440;BME280;39333;47.044;15.080;2022-12-26T03:09:01;96445.28;;;1.08;81.69
53440;BME280;39333;47.044;15.080;2022-12-26T03:11:50;96453.19;;;1.15;80.97
53440;BME280;39333;47.044;15.080;2022-12-26T03:14:47;96451.19;;;1.02;81.84
53440;BME280;39333;47.044;15.080;2022-12-26T03:17:46;96451.72;;;0.97;81.36
53440;BME280;39333;47.044;15.080;2022-12-26T03:20:33;96447.13;;;0.99;81.43
53440;BME280;39333;47.044;15.080;2022-12-26T03:23:12;96445.97;;;1.02;80.71
53440;BME280;39333;47.044;15.080;2022-12-26T03:25:49;96446.78;;;1.02;79.83
53440;BME280;39333;47.044;15.080;2022-12-26T03:28:36;96444.78;;;0.90;79.71
53440;BME280;39333;47.044;15.080;2022-12-26T03:31:09;96453.66;;;0.81;80.56
53440;BME280;39333;47.044;15.080;2022-12-26T03:33:41;96451.78;;;0.89;80.69
53440;BME280;39333;47.044;15.080;2022-12-26T03:39:00;96452.44;;;0.91;79.86
53440;BME280;39333;47.044;15.080;2022-12-26T03:41:59;96458.56;;;0.98;78.99
53440;BME280;39333;47.044;15.080;2022-12-26T03:44:59;96454.22;;;0.91;78.74
53440;BME280;39333;47.044;15.080;2022-12-26T03:48:46;96457.66;;;0.91;78.62
53440;BME280;39333;47.044;15.080;2022-12-26T03:51:24;96446.00;;;0.79;78.79
53440;BME280;39333;47.044;15.080;2022-12-26T03:54:21;96444.59;;;0.68;79.17
53440;BME280;39333;47.044;15.080;2022-12-26T03:57:13;96446.50;;;0.52;80.75
53440;BME280;39333;47.044;15.080;2022-12-26T04:00:04;96442.13;;;0.52;80.86
53440;BME280;39333;47.044;15.080;2022-12-26T04:02:57;96445.88;;;0.50;81.21
53440;BME280;39333;47.044;15.080;2022-12-26T04:05:45;96442.53;;;0.41;82.55
53440;BME280;39333;47.044;15.080;2022-12-26T04:08:59;96424.50;;;0.31;83.78
53440;BME280;39333;47.044;15.080;2022-12-26T04:11:45;96432.78;;;0.35;84.40
53440;BME280;39333;47.044;15.080;2022-12-26T04:14:59;96439.84;;;0.49;83.38
53440;BME280;39333;47.044;15.080;2022-12-26T04:18:01;96435.91;;;0.30;82.36
53440;BME280;39333;47.044;15.080;2022-12-26T04:24:08;96432.31;;;0.31;85.53
53440;BME280;39333;47.044;15.080;2022-12-26T04:27:00;96443.91;;;0.29;85.79
53440;BME280;39333;47.044;15.080;2022-12-26T04:29:46;96440.50;;;0.28;85.71
53440;BME280;39333;47.044;15.080;2022-12-26T04:32:40;96443.09;;;0.28;86.25
53440;BME280;39333;47.044;15.080;2022-12-26T04:35:36;96449.97;;;0.21;85.56
53440;BME280;39333;47.044;15.080;2022-12-26T04:38:28;96440.31;;;0.30;85.28
53440;BME280;39333;47.044;15.080;2022-12-26T04:41:16;96436.56;;;0.32;85.16
53440;BME280;39333;47.044;15.080;2022-12-26T04:44:03;96429.63;;;0.17;85.20
53440;BME280;39333;47.044;15.080;2022-12-26T04:46:37;96426.63;;;0.28;85.63
53440;BME280;39333;47.044;15.080;2022-12-26T04:49:07;96437.31;;;0.41;84.85
53440;BME280;39333;47.044;15.080;2022-12-26T04:51:55;96445.25;;;0.48;83.61
53440;BME280;39333;47.044;15.080;2022-12-26T04:54:22;96427.63;;;0.50;83.57
53440;BME280;39333;47.044;15.080;2022-12-26T04:56:52;96440.66;;;0.50;83.26
53440;BME280;39333;47.044;15.080;2022-12-26T04:59:20;96437.72;;;0.53;83.08
53440;BME280;39333;47.044;15.080;2022-12-26T05:01:47;96427.63;;;0.50;82.38
53440;BME280;39333;47.044;15.080;2022-12-26T05:04:34;96432.03;;;0.49;82.68
53440;BME280;39333;47.044;15.080;2022-12-26T05:07:31;96437.66;;;0.61;84.99
53440;BME280;39333;47.044;15.080;2022-12-26T05:10:27;96438.47;;;0.39;85.08
53440;BME280;39333;47.044;15.080;2022-12-26T05:12:54;96458.75;;;0.51;86.68
53440;BME280;39333;47.044;15.080;2022-12-26T05:15:21;96460.28;;;0.46;86.15
53440;BME280;39333;47.044;15.080;2022-12-26T05:17:49;96463.41;;;0.33;85.36
53440;BME280;39333;47.044;15.080;2022-12-26T05:20:34;96460.53;;;0.28;85.51
53440;BME280;39333;47.044;15.080;2022-12-26T05:23:23;96472.13;;;0.25;85.44
53440;BME280;39333;47.044;15.080;2022-12-26T05:26:16;96472.47;;;0.22;85.03
53440;BME280;39333;47.044;15.080;2022-12-26T05:29:02;96471.25;;;0.33;84.48
53440;BME280;39333;47.044;15.080;2022-12-26T05:31:29;96472.38;;;0.39;84.21
53440;BME280;39333;47.044;15.080;2022-12-26T05:34:03;96481.78;;;0.48;82.92
53440;BME280;39333;47.044;15.080;2022-12-26T05:36:59;96494.59;;;0.57;82.33
53440;BME280;39333;47.044;15.080;2022-12-26T05:39:26;96492.72;;;0.66;82.20
53440;BME280;39333;47.044;15.080;2022-12-26T05:41:53;96483.69;;;0.54;82.37
53440;BME280;39333;47.044;15.080;2022-12-26T05:44:20;96491.66;;;0.29;83.70
53440;BME280;39333;47.044;15.080;2022-12-26T05:46:46;96497.53;;;0.31;84.76
53440;BME280;39333;47.044;15.080;2022-12-26T05:49:14;96492.75;;;0.35;84.54
53440;BME280;39333;47.044;15.080;2022-12-26T05:51:41;96496.53;;;0.32;84.21
53440;BME280;39333;47.044;15.080;2022-12-26T05:54:08;96483.84;;;0.29;84.36
53440;BME280;39333;47.044;15.080;2022-12-26T05:56:34;96477.09;;;0.35;84.23
53440;BME280;39333;47.044;15.080;2022-12-26T05:59:01;96478.53;;;0.46;84.08
53440;BME280;39333;47.044;15.080;2022-12-26T06:01:28;96477.56;;;0.47;83.56
53440;BME280;39333;47.044;15.080;2022-12-26T06:03:57;96479.78;;;0.50;83.25
53440;BME280;39333;47.044;15.080;2022-12-26T06:06:25;96472.50;;;0.45;83.13
53440;BME280;39333;47.044;15.080;2022-12-26T06:08:54;96481.94;;;0.46;83.30
53440;BME280;39333;47.044;15.080;2022-12-26T06:11:22;96476.59;;;0.40;84.34
53440;BME280;39333;47.044;15.080;2022-12-26T06:13:50;96467.97;;;0.39;83.69
53440;BME280;39333;47.044;15.080;2022-12-26T06:16:17;96470.69;;;0.46;83.24
53440;BME280;39333;47.044;15.080;2022-12-26T06:18:44;96477.00;;;0.51;84.72
53440;BME280;39333;47.044;15.080;2022-12-26T06:21:13;96472.25;;;0.55;84.74
53440;BME280;39333;47.044;15.080;2022-12-26T06:23:41;96472.84;;;0.42;83.76
53440;BME280;39333;47.044;15.080;2022-12-26T06:26:08;96464.94;;;0.50;85.79
53440;BME280;39333;47.044;15.080;2022-12-26T06:28:36;96474.97;;;0.39;84.14
53440;BME280;39333;47.044;15.080;2022-12-26T06:31:10;96470.09;;;0.35;84.15
53440;BME280;39333;47.044;15.080;2022-12-26T06:33:39;96471.56;;;0.38;84.64
53440;BME280;39333;47.044;15.080;2022-12-26T06:36:11;96461.41;;;0.43;84.41
53440;BME280;39333;47.044;15.080;2022-12-26T06:38:38;96471.72;;;0.37;84.01
53440;BME280;39333;47.044;15.080;2022-12-26T06:41:07;96479.69;;;0.43;83.59
53440;BME280;39333;47.044;15.080;2022-12-26T06:43:35;96480.50;;;0.44;83.13
53440;BME280;39333;47.044;15.080;2022-12-26T06:46:03;96483.91;;;0.44;83.28
53440;BME280;39333;47.044;15.080;2022-12-26T06:48:32;96493.88;;;0.41;83.91
53440;BME280;39333;47.044;15.080;2022-12-26T06:51:04;96487.69;;;0.42;84.39
53440;BME280;39333;47.044;15.080;2022-12-26T06:53:32;96489.81;;;0.38;85.14
53440;BME280;39333;47.044;15.080;2022-12-26T06:56:29;96479.38;;;0.38;85.65
53440;BME280;39333;47.044;15.080;2022-12-26T06:58:59;96487.50;;;0.43;86.93
53440;BME280;39333;47.044;15.080;2022-12-26T07:01:27;96493.75;;;0.34;86.54
53440;BME280;39333;47.044;15.080;2022-12-26T07:03:55;96497.47;;;0.40;86.24
53440;BME280;39333;47.044;15.080;2022-12-26T07:06:23;96488.97;;;0.46;85.58
53440;BME280;39333;47.044;15.080;2022-12-26T07:08:52;96498.03;;;0.50;85.09
53440;BME280;39333;47.044;15.080;2022-12-26T07:11:22;96495.09;;;0.53;84.97
53440;BME280;39333;47.044;15.080;2022-12-26T07:13:49;96492.16;;;0.56;85.46
53440;BME280;39333;47.044;15.080;2022-12-26T07:16:16;96494.53;;;0.65;85.04
53440;BME280;39333;47.044;15.080;2022-12-26T07:18:43;96500.22;;;0.69;85.02
53440;BME280;39333;47.044;15.080;2022-12-26T07:21:13;96491.88;;;0.74;84.84
53440;BME280;39333;47.044;15.080;2022-12-26T07:23:40;96500.84;;;0.71;84.90
53440;BME280;39333;47.044;15.080;2022-12-26T07:26:08;96492.84;;;0.73;84.83
53440;BME280;39333;47.044;15.080;2022-12-26T07:28:35;96488.28;;;0.75;85.13
53440;BME280;39333;47.044;15.080;2022-12-26T07:31:02;96499.38;;;0.77;85.24
53440;BME280;39333;47.044;15.080;2022-12-26T07:33:30;96505.66;;;0.82;85.59
53440;BME280;39333;47.044;15.080;2022-12-26T07:36:03;96505.63;;;0.90;85.04
53440;BME280;39333;47.044;15.080;2022-12-26T07:38:31;96516.00;;;0.98;85.21
53440;BME280;39333;47.044;15.080;2022-12-26T07:40:59;96507.47;;;1.04;84.67
53440;BME280;39333;47.044;15.080;2022-12-26T07:43:46;96506.94;;;1.09;84.55
53440;BME280;39333;47.044;15.080;2022-12-26T07:46:13;96500.66;;;1.18;84.16
53440;BME280;39333;47.044;15.080;2022-12-26T07:48:40;96502.09;;;1.21;83.52
53440;BME280;39333;47.044;15.080;2022-12-26T07:51:06;96494.91;;;1.23;83.82
53440;BME280;39333;47.044;15.080;2022-12-26T07:53:33;96509.50;;;1.32;83.86
53440;BME280;39333;47.044;15.080;2022-12-26T07:56:00;96501.16;;;1.36;83.84
53440;BME280;39333;47.044;15.080;2022-12-26T07:58:27;96505.34;;;1.46;83.31
53440;BME280;39333;47.044;15.080;2022-12-26T08:00:54;96496.75;;;1.52;83.17
53440;BME280;39333;47.044;15.080;2022-12-26T08:03:22;96491.47;;;1.60;83.18
53440;BME280;39333;47.044;15.080;2022-12-26T08:05:51;96488.84;;;1.60;83.28
53440;BME280;39333;47.044;15.080;2022-12-26T08:08:18;96491.72;;;1.65;83.49
53440;BME280;39333;47.044;15.080;2022-12-26T08:10:45;96474.53;;;1.70;83.26
53440;BME280;39333;47.044;15.080;2022-12-26T08:13:12;96474.06;;;1.82;83.02
53440;BME280;39333;47.044;15.080;2022-12-26T08:15:39;96471.81;;;1.93;82.55
53440;BME280;39333;47.044;15.080;2022-12-26T08:18:06;96488.31;;;2.08;82.91
53440;BME280;39333;47.044;15.080;2022-12-26T08:20:33;96492.06;;;2.21;83.28
53440;BME280;39333;47.044;15.080;2022-12-26T08:23:00;96490.34;;;2.64;84.37
53440;BME280;39333;47.044;15.080;2022-12-26T08:25:27;96498.56;;;2.82;83.63
53440;BME280;39333;47.044;15.080;2022-12-26T08:27:54;96506.94;;;3.13;83.84
53440;BME280;39333;47.044;15.080;2022-12-26T08:30:21;96495.50;;;3.77;82.48
53440;BME280;39333;47.044;15.080;2022-12-26T08:32:50;96496.69;;;3.74;80.78
53440;BME280;39333;47.044;15.080;2022-12-26T08:35:17;96502.47;;;4.39;80.12
53440;BME280;39333;47.044;15.080;2022-12-26T08:37:46;96501.78;;;4.71;78.03
53440;BME280;39333;47.044;15.080;2022-12-26T08:40:13;96507.31;;;4.96;77.45
53440;BME280;39333;47.044;15.080;2022-12-26T08:42:44;96511.16;;;5.00;76.59
53440;BME280;39333;47.044;15.080;2022-12-26T08:45:30;96521.03;;;4.91;76.54
53440;BME280;39333;47.044;15.080;2022-12-26T08:47:57;96512.59;;;5.03;77.17
53440;BME280;39333;47.044;15.080;2022-12-26T08:50:26;96514.22;;;5.10;76.74
53440;BME280;39333;47.044;15.080;2022-12-26T08:52:52;96523.09;;;5.09;76.91
53440;BME280;39333;47.044;15.080;2022-12-26T08:55:19;96516.88;;;5.30;76.42
53440;BME280;39333;47.044;15.080;2022-12-26T08:57:46;96526.34;;;5.38;75.65
53440;BME280;39333;47.044;15.080;2022-12-26T09:00:13;96523.13;;;5.29;75.39
53440;BME280;39333;47.044;15.080;2022-12-26T09:02:40;96526.56;;;5.36;76.01
53440;BME280;39333;47.044;15.080;2022-12-26T09:05:07;96523.94;;;5.43;75.80
53440;BME280;39333;47.044;15.080;2022-12-26T09:07:34;96530.81;;;5.57;75.91
53440;BME280;39333;47.044;15.080;2022-12-26T09:10:01;96527.97;;;5.72;76.32
53440;BME280;39333;47.044;15.080;2022-12-26T09:12:28;96526.78;;;5.81;76.52
53440;BME280;39333;47.044;15.080;2022-12-26T09:14:55;96530.00;;;5.96;76.38
53440;BME280;39333;47.044;15.080;2022-12-26T09:17:22;96512.56;;;6.08;76.34
53440;BME280;39333;47.044;15.080;2022-12-26T09:19:51;96511.31;;;6.30;76.02
53440;BME280;39333;47.044;15.080;2022-12-26T09:22:18;96510.19;;;6.51;75.43
53440;BME280;39333;47.044;15.080;2022-12-26T09:25:04;96510.97;;;6.65;75.16
53440;BME280;39333;47.044;15.080;2022-12-26T09:27:31;96512.06;;;6.89;75.20
53440;BME280;39333;47.044;15.080;2022-12-26T09:29:57;96510.06;;;7.16;75.11
53440;BME280;39333;47.044;15.080;2022-12-26T09:32:25;96514.97;;;7.37;74.15
53440;BME280;39333;47.044;15.080;2022-12-26T09:34:52;96514.75;;;7.63;73.18
53440;BME280;39333;47.044;15.080;2022-12-26T09:37:18;96522.09;;;7.86;73.42
53440;BME280;39333;47.044;15.080;2022-12-26T09:39:45;96500.03;;;7.99;72.45
53440;BME280;39333;47.044;15.080;2022-12-26T09:47:39;96500.50;;;8.99;65.34
53440;BME280;39333;47.044;15.080;2022-12-26T10:01:04;96494.34;;;9.81;65.16
53440;BME280;39333;47.044;15.080;2022-12-26T10:03:39;96489.25;;;9.80;65.42
53440;BME280;39333;47.044;15.080;2022-12-26T10:17:31;96482.78;;;10.46;61.95
53440;BME280;39333;47.044;15.080;2022-12-26T10:20:11;96492.19;;;10.65;61.78
53440;BME280;39333;47.044;15.080;2022-12-26T10:25:24;96497.06;;;11.13;59.16
53440;BME280;39333;47.044;15.080;2022-12-26T10:28:00;96492.03;;;11.29;61.37
53440;BME280;39333;47.044;15.080;2022-12-26T10:30:34;96487.53;;;11.46;60.55
53440;BME280;39333;47.044;15.080;2022-12-26T10:33:11;96477.16;;;11.44;59.61
53440;BME280;39333;47.044;15.080;2022-12-26T10:35:43;96475.69;;;11.70;60.61
53440;BME280;39333;47.044;15.080;2022-12-26T10:40:42;96465.59;;;11.84;57.21
53440;BME280;39333;47.044;15.080;2022-12-26T10:46:21;96465.84;;;12.43;57.00
53440;BME280;39333;47.044;15.080;2022-12-26T10:49:03;96461.69;;;12.74;57.02
53440;BME280;39333;47.044;15.080;2022-12-26T10:51:32;96465.03;;;13.13;56.29
53440;BME280;39333;47.044;15.080;2022-12-26T10:54:16;96459.41;;;13.36;55.81
53440;BME280;39333;47.044;15.080;2022-12-26T10:56:47;96456.44;;;13.64;51.31
53440;BME280;39333;47.044;15.080;2022-12-26T10:59:43;96441.41;;;13.85;54.78
53440;BME280;39333;47.044;15.080;2022-12-26T11:02:14;96433.41;;;13.85;56.53
53440;BME280;39333;47.044;15.080;2022-12-26T11:05:07;96429.94;;;13.48;54.36
53440;BME280;39333;47.044;15.080;2022-12-26T11:07:56;96429.66;;;13.44;51.90
53440;BME280;39333;47.044;15.080;2022-12-26T11:10:31;96428.34;;;13.47;54.67
53440;BME280;39333;47.044;15.080;2022-12-26T11:13:00;96427.94;;;13.65;55.42
53440;BME280;39333;47.044;15.080;2022-12-26T11:15:39;96419.22;;;13.75;54.18
53440;BME280;39333;47.044;15.080;2022-12-26T11:18:22;96429.44;;;13.88;52.94
53440;BME280;39333;47.044;15.080;2022-12-26T11:20:53;96412.63;;;13.87;51.52
53440;BME280;39333;47.044;15.080;2022-12-26T11:25:59;96404.88;;;13.86;50.11
53440;BME280;39333;47.044;15.080;2022-12-26T11:28:32;96407.22;;;13.72;51.92
53440;BME280;39333;47.044;15.080;2022-12-26T11:31:03;96402.59;;;13.57;50.80
53440;BME280;39333;47.044;15.080;2022-12-26T11:33:41;96395.03;;;13.44;52.28
53440;BME280;39333;47.044;15.080;2022-12-26T11:36:16;96395.91;;;13.55;50.13
53440;BME280;39333;47.044;15.080;2022-12-26T11:46:47;96394.66;;;14.20;45.43
53440;BME280;39333;47.044;15.080;2022-12-26T11:51:52;96397.22;;;14.52;44.28
53440;BME280;39333;47.044;15.080;2022-12-26T11:54:38;96397.28;;;14.72;45.43
53440;BME280;39333;47.044;15.080;2022-12-26T11:57:39;96381.53;;;14.70;44.74
53440;BME280;39333;47.044;15.080;2022-12-26T12:00:15;96381.78;;;14.64;44.77
53440;BME280;39333;47.044;15.080;2022-12-26T12:02:45;96360.97;;;14.56;43.16
53440;BME280;39333;47.044;15.080;2022-12-26T12:05:17;96370.81;;;14.55;44.22
53440;BME280;39333;47.044;15.080;2022-12-26T12:13:41;96375.91;;;14.62;43.06
53440;BME280;39333;47.044;15.080;2022-12-26T12:16:31;96387.66;;;14.66;43.18
53440;BME280;39333;47.044;15.080;2022-12-26T12:22:18;96399.25;;;14.34;44.73
53440;BME280;39333;47.044;15.080;2022-12-26T12:30:18;96401.47;;;14.48;50.09
53440;BME280;39333;47.044;15.080;2022-12-26T12:38:27;96395.69;;;14.14;48.68
53440;BME280;39333;47.044;15.080;2022-12-26T12:41:18;96389.38;;;14.30;49.27
53440;BME280;39333;47.044;15.080;2022-12-26T12:44:42;96393.47;;;14.48;49.62
53440;BME280;39333;47.044;15.080;2022-12-26T13:03:38;96393.09;;;14.29;45.25
53440;BME280;39333;47.044;15.080;2022-12-26T13:06:10;96398.59;;;14.02;49.60
53440;BME280;39333;47.044;15.080;2022-12-26T13:09:01;96395.28;;;13.80;52.23
53440;BME280;39333;47.044;15.080;2022-12-26T13:11:37;96392.31;;;13.39;50.66
53440;BME280;39333;47.044;15.080;2022-12-26T13:14:22;96389.53;;;13.56;50.40
53440;BME280;39333;47.044;15.080;2022-12-26T13:17:10;96394.38;;;13.32;53.45
53440;BME280;39333;47.044;15.080;2022-12-26T13:19:43;96391.59;;;13.17;52.25
53440;BME280;39333;47.044;15.080;2022-12-26T13:22:37;96385.19;;;13.13;50.99
53440;BME280;39333;47.044;15.080;2022-12-26T13:25:26;96398.44;;;13.08;51.65
53440;BME280;39333;47.044;15.080;2022-12-26T13:27:55;96406.84;;;13.00;50.67
53440;BME280;39333;47.044;15.080;2022-12-26T13:30:36;96405.22;;;12.93;50.14
53440;BME280;39333;47.044;15.080;2022-12-26T13:33:04;96403.91;;;13.23;51.60
53440;BME280;39333;47.044;15.080;2022-12-26T13:38:19;96400.44;;;13.54;49.51
53440;BME280;39333;47.044;15.080;2022-12-26T13:40:56;96405.06;;;13.69;49.16
53440;BME280;39333;47.044;15.080;2022-12-26T13:44:07;96406.09;;;13.68;48.74
53440;BME280;39333;47.044;15.080;2022-12-26T14:00:02;96406.47;;;13.13;49.85
53440;BME280;39333;47.044;15.080;2022-12-26T14:02:55;96416.31;;;13.12;49.80
53440;BME280;39333;47.044;15.080;2022-12-26T14:11:47;96410.97;;;12.80;50.42
53440;BME280;39333;47.044;15.080;2022-12-26T14:25:58;96407.03;;;11.96;53.97
53440;BME280;39333;47.044;15.080;2022-12-26T14:28:04;96417.81;;;11.72;54.65
53440;BME280;39333;47.044;15.080;2022-12-26T14:33:38;96426.81;;;11.49;54.69
53440;BME280;39333;47.044;15.080;2022-12-26T14:44:58;96416.09;;;11.11;54.95
53440;BME280;39333;47.044;15.080;2022-12-26T14:47:46;96416.88;;;10.95;54.53
53440;BME280;39333;47.044;15.080;2022-12-26T14:55:51;96413.13;;;10.79;54.20
53440;BME280;39333;47.044;15.080;2022-12-26T15:28:22;96411.09;;;10.41;54.03
53440;BME280;39333;47.044;15.080;2022-12-26T15:37:11;96420.94;;;10.29;54.76
53440;BME280;39333;47.044;15.080;2022-12-26T15:42:44;96427.97;;;10.11;55.92
53440;BME280;39333;47.044;15.080;2022-12-26T15:45:37;96424.66;;;10.04;55.48
53440;BME280;39333;47.044;15.080;2022-12-26T15:48:09;96425.56;;;10.10;55.27
53440;BME280;39333;47.044;15.080;2022-12-26T15:53:49;96416.22;;;10.07;55.67
53440;BME280;39333;47.044;15.080;2022-12-26T15:57:01;96415.69;;;10.05;55.20
53440;BME280;39333;47.044;15.080;2022-12-26T16:05:40;96417.75;;;9.92;55.97
53440;BME280;39333;47.044;15.080;2022-12-26T16:13:47;96405.25;;;9.52;57.79
53440;BME280;39333;47.044;15.080;2022-12-26T16:16:23;96402.16;;;9.55;56.89
53440;BME280;39333;47.044;15.080;2022-12-26T16:18:50;96396.13;;;9.60;56.79
53440;BME280;39333;47.044;15.080;2022-12-26T16:21:18;96404.56;;;9.68;56.49
53440;BME280;39333;47.044;15.080;2022-12-26T16:24:07;96393.28;;;9.73;56.38
53440;BME280;39333;47.044;15.080;2022-12-26T16:26:42;96403.72;;;9.79;56.12
53440;BME280;39333;47.044;15.080;2022-12-26T16:29:17;96396.00;;;9.78;55.85
53440;BME280;39333;47.044;15.080;2022-12-26T16:31:45;96406.13;;;9.81;56.01
53440;BME280;39333;47.044;15.080;2022-12-26T16:34:17;96401.06;;;9.91;55.61
53440;BME280;39333;47.044;15.080;2022-12-26T16:36:45;96391.75;;;9.89;55.62
53440;BME280;39333;47.044;15.080;2022-12-26T16:39:20;96410.72;;;9.97;55.25
53440;BME280;39333;47.044;15.080;2022-12-26T16:42:05;96416.72;;;9.93;55.58
53440;BME280;39333;47.044;15.080;2022-12-26T16:47:05;96417.53;;;10.05;55.09
53440;BME280;39333;47.044;15.080;2022-12-26T16:49:33;96415.75;;;10.10;55.06
53440;BME280;39333;47.044;15.080;2022-12-26T16:52:01;96413.16;;;9.99;55.25
53440;BME280;39333;47.044;15.080;2022-12-26T16:54:38;96429.16;;;9.92;55.86
53440;BME280;39333;47.044;15.080;2022-12-26T16:59:54;96431.00;;;10.03;54.91
53440;BME280;39333;47.044;15.080;2022-12-26T17:02:32;96412.69;;;10.02;55.19
53440;BME280;39333;47.044;15.080;2022-12-26T17:05:23;96404.13;;;10.11;54.73
53440;BME280;39333;47.044;15.080;2022-12-26T17:07:53;96404.69;;;10.13;54.79
53440;BME280;39333;47.044;15.080;2022-12-26T17:10:30;96405.41;;;10.21;54.61
53440;BME280;39333;47.044;15.080;2022-12-26T17:13:00;96409.53;;;10.16;54.91
53440;BME280;39333;47.044;15.080;2022-12-26T17:15:36;96405.41;;;10.21;54.97
53440;BME280;39333;47.044;15.080;2022-12-26T17:23:45;96395.06;;;10.19;54.69
53440;BME280;39333;47.044;15.080;2022-12-26T17:26:27;96397.69;;;10.07;55.01
53440;BME280;39333;47.044;15.080;2022-12-26T17:28:54;96389.88;;;10.01;55.35
53440;BME280;39333;47.044;15.080;2022-12-26T17:31:42;96376.66;;;9.89;55.98
53440;BME280;39333;47.044;15.080;2022-12-26T17:34:18;96384.97;;;9.81;56.04